Time;durP1;ratioP1;P1;durP2;ratioP2;P2;SDS_P1;SDS_P2;PMS_P1;PMS_P2;Temp;Humidity;BMP_temperature;BMP_pressure;BME280_temperature;BME280_humidity;BME280_pressure;Samples;Min_cycle;Max_cycle;Signal;HPM_P1;HPM_P2
2022/07/29 00:01:56;;;;;;;1.52;0.50;;;;;;;16.00;100.00;100126.13;7393536;19;20046;-60
2022/07/29 00:04:22;;;;;;;1.70;0.65;;;;;;;15.98;100.00;100131.50;7394702;19;20027;-61
2022/07/29 00:06:49;;;;;;;0.52;0.20;;;;;;;15.96;100.00;100125.56;7398644;19;20329;-61
2022/07/29 00:09:15;;;;;;;0.63;0.40;;;;;;;15.94;100.00;100125.31;7392967;19;20015;-60
2022/07/29 00:11:41;;;;;;;1.55;0.57;;;;;;;15.90;100.00;100124.81;7394554;19;20015;-61
2022/07/29 00:14:08;;;;;;;0.20;0.20;;;;;;;15.90;100.00;100119.19;7393952;19;20018;-61
2022/07/29 00:16:34;;;;;;;6.47;0.43;;;;;;;15.89;100.00;100121.25;7395713;19;20501;-60
2022/07/29 00:19:00;;;;;;;13.82;0.43;;;;;;;15.85;100.00;100120.69;7393598;19;20031;-57
2022/07/29 00:21:27;;;;;;;1.33;0.17;;;;;;;15.84;100.00;100121.97;7390899;19;20025;-60
2022/07/29 00:23:53;;;;;;;0.45;0.25;;;;;;;15.84;100.00;100124.78;7389244;19;20010;-60
2022/07/29 00:26:19;;;;;;;0.40;0.10;;;;;;;15.84;100.00;100118.41;7393900;19;20037;-59
2022/07/29 00:28:45;;;;;;;1.08;0.28;;;;;;;15.83;100.00;100125.31;7391482;19;20018;-60
2022/07/29 00:31:12;;;;;;;1.65;0.30;;;;;;;15.80;100.00;100121.47;7392933;19;20055;-60
2022/07/29 00:33:38;;;;;;;3.50;0.40;;;;;;;15.81;100.00;100119.41;7391964;19;20013;-60
2022/07/29 00:36:04;;;;;;;0.55;0.43;;;;;;;15.78;100.00;100117.63;7394365;19;20017;-60
2022/07/29 00:38:31;;;;;;;3.45;0.38;;;;;;;15.76;100.00;100120.16;7390211;19;20334;-60
2022/07/29 00:40:57;;;;;;;2.67;0.32;;;;;;;15.71;100.00;100118.09;7390757;19;20021;-61
2022/07/29 00:43:23;;;;;;;0.15;0.15;;;;;;;15.71;100.00;100118.09;7389654;19;20045;-60
2022/07/29 00:45:49;;;;;;;0.38;0.32;;;;;;;15.68;100.00;100116.31;7392194;19;20010;-61
2022/07/29 00:48:15;;;;;;;0.20;0.10;;;;;;;15.69;100.00;100115.03;7390098;19;20038;-60
2022/07/29 00:50:42;;;;;;;0.10;0.10;;;;;;;15.67;100.00;100117.56;7390007;19;20354;-61
2022/07/29 00:53:11;;;;;;;1.65;0.10;;;;;;;15.61;100.00;100120.38;7391453;19;20035;-61
2022/07/29 00:55:38;;;;;;;0.20;0.20;;;;;;;15.61;100.00;100106.34;7391478;19;20024;-61
2022/07/29 00:58:04;;;;;;;0.10;0.10;;;;;;;15.57;100.00;100107.84;7388312;19;20022;-61
2022/07/29 01:00:31;;;;;;;0.40;0.10;;;;;;;15.53;100.00;100110.09;7393271;19;20047;-60
2022/07/29 01:02:57;;;;;;;0.95;0.20;;;;;;;15.53;100.00;100107.28;7389004;19;20031;-61
2022/07/29 01:05:27;;;;;;;0.75;0.20;;;;;;;15.51;100.00;100105.00;7391951;19;20017;-61
2022/07/29 01:07:54;;;;;;;0.25;0.10;;;;;;;15.50;100.00;100102.69;7391265;19;20007;-61
2022/07/29 01:10:22;;;;;;;0.20;0.20;;;;;;;15.44;100.00;100105.47;7389307;19;20022;-60
2022/07/29 01:12:51;;;;;;;2.70;0.45;;;;;;;15.42;100.00;100112.84;7391393;19;20006;-60
2022/07/29 01:15:17;;;;;;;1.02;0.35;;;;;;;15.39;100.00;100114.63;7389138;19;20045;-60
2022/07/29 01:17:52;;;;;;;0.55;0.40;;;;;;;15.40;100.00;100104.16;7395067;19;20014;-60
2022/07/29 01:20:42;;;;;;;0.30;0.20;;;;;;;15.39;100.00;100114.63;7390444;19;20455;-60
2022/07/29 01:23:18;;;;;;;0.65;0.10;;;;;;;15.38;100.00;100106.69;7391086;19;20074;-60
2022/07/29 01:26:09;;;;;;;0.90;0.32;;;;;;;15.36;100.00;100103.59;7389094;19;20091;-61
2022/07/29 01:28:53;;;;;;;0.43;0.17;;;;;;;15.34;100.00;100101.31;7390617;19;20615;-61
2022/07/29 01:31:27;;;;;;;0.13;0.13;;;;;;;15.33;100.00;100104.63;7389891;19;20019;-60
2022/07/29 01:34:02;;;;;;;0.10;0.10;;;;;;;15.31;100.00;100102.31;7388614;19;20015;-60
2022/07/29 01:36:35;;;;;;;0.15;0.15;;;;;;;15.30;100.00;100108.44;7391954;19;20018;-60
2022/07/29 01:39:18;;;;;;;0.65;0.22;;;;;;;15.29;100.00;100115.31;7389402;19;20006;-60
2022/07/29 01:41:56;;;;;;;0.47;0.10;;;;;;;15.27;100.00;100115.81;7389471;19;20021;-60
2022/07/29 01:44:31;;;;;;;1.75;0.38;;;;;;;15.28;100.00;100114.53;7388330;19;20006;-60
2022/07/29 01:47:00;;;;;;;0.50;0.47;;;;;;;15.29;100.00;100115.31;7391749;19;20014;-60
2022/07/29 01:49:33;;;;;;;0.17;0.10;;;;;;;15.29;100.00;100115.31;7389190;19;20010;-61
2022/07/29 01:52:05;;;;;;;0.20;0.20;;;;;;;15.25;100.00;100121.16;7388130;19;20034;-60
2022/07/29 01:54:42;;;;;;;0.30;0.22;;;;;;;15.26;100.00;100117.09;7388873;19;20021;-61
2022/07/29 01:57:13;;;;;;;0.20;0.10;;;;;;;15.28;100.00;100119.38;7393439;19;20039;-60
2022/07/29 01:59:41;;;;;;;0.20;0.10;;;;;;;15.29;100.00;100118.13;7389736;19;20017;-60
2022/07/29 02:02:10;;;;;;;0.20;0.20;;;;;;;15.29;100.00;100115.31;7396069;19;20014;-60
2022/07/29 02:04:39;;;;;;;0.20;0.10;;;;;;;15.26;100.00;100110.69;7398305;19;20116;-60
2022/07/29 02:07:09;;;;;;;0.05;0.05;;;;;;;15.24;100.00;100107.63;7401091;19;20011;-60
2022/07/29 02:09:37;;;;;;;0.30;0.30;;;;;;;15.22;100.00;100107.38;7394587;19;20015;-61
2022/07/29 02:12:06;;;;;;;0.20;0.20;;;;;;;15.16;100.00;100091.25;7396127;19;20015;-61
2022/07/29 02:14:36;;;;;;;0.43;0.35;;;;;;;15.16;100.00;100096.88;7396217;19;20018;-60
2022/07/29 02:17:03;;;;;;;0.20;0.20;;;;;;;15.12;100.00;100096.34;7400463;19;20332;-60
2022/07/29 02:19:32;;;;;;;0.90;0.20;;;;;;;15.12;100.00;100090.72;7397559;19;20443;-60
2022/07/29 02:22:00;;;;;;;0.32;0.15;;;;;;;15.12;100.00;100093.53;7397059;19;20085;-60
2022/07/29 02:24:29;;;;;;;1.25;0.13;;;;;;;15.09;100.00;100097.31;7396515;19;20018;-60
2022/07/29 02:26:58;;;;;;;0.10;0.10;;;;;;;15.10;100.00;100103.72;7398991;19;20010;-60
2022/07/29 02:29:26;;;;;;;0.73;0.60;;;;;;;15.08;100.00;100095.81;7394592;19;20014;-60
2022/07/29 02:31:55;;;;;;;0.20;0.00;;;;;;;15.07;100.00;100099.88;7396089;19;20348;-60
2022/07/29 02:34:22;;;;;;;0.10;0.10;;;;;;;15.07;100.00;100102.69;7394377;19;20028;-60
2022/07/29 02:36:50;;;;;;;0.55;0.28;;;;;;;15.06;100.00;100103.97;7399901;19;20007;-60
2022/07/29 02:39:17;;;;;;;0.10;0.10;;;;;;;15.03;100.00;100110.56;7396169;19;20015;-60
2022/07/29 02:41:50;;;;;;;0.40;0.10;;;;;;;15.02;100.00;100108.25;7396939;19;20014;-60
2022/07/29 02:44:20;;;;;;;0.52;0.35;;;;;;;15.00;100.00;100111.56;7397005;19;20066;-60
2022/07/29 02:46:53;;;;;;;0.20;0.20;;;;;;;14.96;100.00;100105.44;7398636;19;20014;-60
2022/07/29 02:49:41;;;;;;;0.55;0.22;;;;;;;14.95;100.00;100111.53;7393851;19;20007;-60
2022/07/29 02:52:15;;;;;;;0.85;0.30;;;;;;;14.93;100.00;100114.84;7395553;19;20011;-60
2022/07/29 02:54:55;;;;;;;0.22;0.10;;;;;;;14.90;100.00;100115.81;7395913;19;20048;-61
2022/07/29 02:57:31;;;;;;;0.10;0.00;;;;;;;14.90;100.00;100118.63;7397812;19;20018;-61
2022/07/29 03:00:03;;;;;;;0.30;0.10;;;;;;;14.90;100.00;100113.00;7398934;19;20016;-60
2022/07/29 03:02:33;;;;;;;5.15;0.30;;;;;;;14.91;100.00;100111.00;7395355;19;20373;-60
2022/07/29 03:05:02;;;;;;;1.17;0.40;;;;;;;14.89;100.00;100111.50;7395378;19;20017;-60
2022/07/29 03:07:29;;;;;;;12.80;0.50;;;;;;;14.96;100.00;100107.47;7398437;19;20015;-60
2022/07/29 03:09:57;;;;;;;0.55;0.20;;;;;;;15.01;100.00;100115.13;7393156;19;20003;-60
2022/07/29 03:12:23;;;;;;;0.30;0.20;;;;;;;15.03;100.00;100110.56;7392161;19;20014;-60
2022/07/29 03:14:50;;;;;;;1.00;0.50;;;;;;;15.04;100.00;100109.31;7395967;19;20039;-60
2022/07/29 03:17:16;;;;;;;0.50;0.28;;;;;;;15.05;100.00;100110.81;7398714;19;20014;-60
2022/07/29 03:19:43;;;;;;;0.43;0.20;;;;;;;15.06;100.00;100106.75;7393090;19;20014;-60
2022/07/29 03:22:09;;;;;;;0.15;0.10;;;;;;;15.07;100.00;100108.28;7395431;19;20779;-60
2022/07/29 03:24:36;;;;;;;5.97;0.20;;;;;;;15.07;100.00;100102.69;7393345;19;20010;-60
2022/07/29 03:27:04;;;;;;;0.30;0.20;;;;;;;15.12;100.00;100106.78;7396036;19;20007;-60
2022/07/29 03:29:31;;;;;;;1.85;0.30;;;;;;;15.14;100.00;100109.84;7393833;19;20031;-60
2022/07/29 03:31:57;;;;;;;0.88;0.80;;;;;;;15.15;100.00;100105.78;7394983;19;20039;-61
2022/07/29 03:34:23;;;;;;;0.75;0.20;;;;;;;15.13;100.00;100113.94;7395100;19;20018;-60
2022/07/29 03:36:50;;;;;;;1.95;0.30;;;;;;;15.11;100.00;100114.47;7396913;19;20013;-60
2022/07/29 03:39:22;;;;;;;0.10;0.10;;;;;;;15.13;100.00;100119.56;7391966;19;20078;-60
2022/07/29 03:41:53;;;;;;;0.20;0.20;;;;;;;15.12;100.00;100124.41;7396310;19;20007;-60
2022/07/29 03:44:21;;;;;;;2.00;0.32;;;;;;;15.15;100.00;100128.25;7393882;19;20018;-60
2022/07/29 03:46:50;;;;;;;0.57;0.20;;;;;;;15.14;100.00;100133.06;7395569;19;20062;-60
2022/07/29 03:49:18;;;;;;;0.22;0.10;;;;;;;15.12;100.00;100129.22;7390250;19;20476;-61
2022/07/29 03:51:45;;;;;;;0.20;0.10;;;;;;;15.07;100.00;100138.41;7393332;19;20006;-61
2022/07/29 03:54:11;;;;;;;1.08;0.30;;;;;;;14.98;100.00;100141.38;7392940;19;20014;-61
2022/07/29 03:56:41;;;;;;;0.45;0.10;;;;;;;14.87;100.00;100139.28;7393762;19;20382;-60
2022/07/29 03:59:10;;;;;;;0.17;0.17;;;;;;;14.83;100.00;100141.53;7393956;19;20044;-60
2022/07/29 04:01:38;;;;;;;0.25;0.10;;;;;;;14.77;100.00;100149.09;7391616;19;20038;-60
2022/07/29 04:04:05;;;;;;;0.52;0.13;;;;;;;14.71;100.00;100144.72;7390814;19;20014;-60
2022/07/29 04:06:41;;;;;;;0.30;0.25;;;;;;;14.66;100.00;100149.00;7395110;19;20015;-60
2022/07/29 04:09:09;;;;;;;0.10;0.10;;;;;;;14.62;100.00;100154.06;7389308;19;20028;-60
2022/07/29 04:11:36;;;;;;;0.40;0.20;;;;;;;14.57;100.00;100143.59;7392825;19;20655;-61
2022/07/29 04:14:03;;;;;;;1.30;0.57;;;;;;;14.54;100.00;100147.38;7391034;19;20033;-61
2022/07/29 04:16:29;;;;;;;1.20;0.38;;;;;;;14.53;100.00;100148.63;7394258;19;20038;-61
2022/07/29 04:18:55;;;;;;;1.27;0.10;;;;;;;14.50;100.00;100146.06;7392448;19;20035;-60
2022/07/29 04:21:22;;;;;;;1.10;0.50;;;;;;;14.50;100.00;100146.84;7392310;19;20010;-60
2022/07/29 04:23:49;;;;;;;0.60;0.30;;;;;;;14.48;100.00;100149.38;7391489;19;20631;-63
2022/07/29 04:26:17;;;;;;;0.20;0.10;;;;;;;14.44;100.00;100149.56;7392043;19;20066;-60
2022/07/29 04:28:43;;;;;;;0.10;0.10;;;;;;;14.44;100.00;100148.84;7391331;19;20021;-60
2022/07/29 04:31:11;;;;;;;0.73;0.20;;;;;;;14.43;100.00;100153.66;7392914;19;20006;-60
2022/07/29 04:33:37;;;;;;;0.73;0.10;;;;;;;14.48;100.00;100148.59;7391763;19;20590;-60
2022/07/29 04:36:04;;;;;;;2.30;0.52;;;;;;;14.50;100.00;100151.69;7392605;19;20010;-60
2022/07/29 04:38:30;;;;;;;1.00;0.43;;;;;;;14.46;100.00;100146.31;7391516;19;20654;-60
2022/07/29 04:40:56;;;;;;;0.52;0.28;;;;;;;14.58;100.00;100147.16;7391950;19;20006;-60
2022/07/29 04:43:22;;;;;;;0.43;0.20;;;;;;;14.65;100.00;100143.91;7388880;19;20030;-60
2022/07/29 04:45:49;;;;;;;1.75;0.28;;;;;;;14.65;100.00;100149.53;7391366;19;20447;-60
2022/07/29 04:48:15;;;;;;;0.20;0.10;;;;;;;14.67;100.00;100149.78;7391185;19;20021;-60
2022/07/29 04:50:41;;;;;;;3.30;0.57;;;;;;;14.66;100.00;100143.41;7389767;19;20583;-60
2022/07/29 04:53:07;;;;;;;1.05;0.45;;;;;;;14.69;100.00;100145.22;7391868;19;20037;-60
2022/07/29 04:55:33;;;;;;;0.10;0.00;;;;;;;14.54;100.00;100143.81;7391201;19;20018;-60
2022/07/29 04:58:00;;;;;;;0.60;0.28;;;;;;;14.59;100.00;100143.88;7391351;19;20010;-60
2022/07/29 05:00:26;;;;;;;1.00;0.52;;;;;;;14.59;100.00;100155.09;7393539;19;20027;-59
2022/07/29 05:02:52;;;;;;;1.55;0.40;;;;;;;14.58;100.00;100153.53;7389881;19;20015;-60
2022/07/29 05:05:18;;;;;;;1.20;0.35;;;;;;;14.63;100.00;100166.84;7388392;19;20039;-60
2022/07/29 05:07:44;;;;;;;0.95;0.13;;;;;;;14.60;100.00;100161.44;7395127;19;20011;-60
2022/07/29 05:10:11;;;;;;;0.85;0.45;;;;;;;14.54;100.00;100164.19;7389241;19;20044;-60
2022/07/29 05:12:37;;;;;;;0.50;0.28;;;;;;;14.60;100.00;100167.03;7391099;19;20356;-61
2022/07/29 05:15:04;;;;;;;0.30;0.30;;;;;;;14.67;100.00;100164.56;7389930;19;20018;-60
2022/07/29 05:17:30;;;;;;;0.45;0.45;;;;;;;14.68;100.00;100170.97;7393911;19;20083;-60
2022/07/29 05:19:57;;;;;;;2.65;0.40;;;;;;;14.67;100.00;100173.00;7390145;19;20015;-60
2022/07/29 05:22:23;;;;;;;0.30;0.20;;;;;;;14.73;100.00;100176.59;7388688;19;20011;-60
2022/07/29 05:24:49;;;;;;;0.20;0.20;;;;;;;14.77;100.00;100177.16;7389095;19;20468;-60
2022/07/29 05:27:15;;;;;;;3.13;0.50;;;;;;;14.73;100.00;100178.63;7393118;19;20021;-60
2022/07/29 05:29:41;;;;;;;0.10;0.10;;;;;;;14.71;100.00;100175.56;7388525;19;20470;-60
2022/07/29 05:32:08;;;;;;;0.10;0.10;;;;;;;14.71;100.00;100179.13;7389755;19;20104;-60
2022/07/29 05:34:34;;;;;;;0.55;0.20;;;;;;;14.72;100.00;100185.53;7388367;19;20014;-60
2022/07/29 05:37:00;;;;;;;1.30;0.30;;;;;;;14.70;100.00;100183.22;7391290;19;20058;-60
2022/07/29 05:39:26;;;;;;;0.47;0.30;;;;;;;14.75;100.00;100185.28;7388683;19;20500;-60
2022/07/29 05:41:52;;;;;;;3.20;0.45;;;;;;;14.76;100.00;100181.22;7388771;19;20010;-60
2022/07/29 05:44:19;;;;;;;2.25;0.45;;;;;;;14.78;100.00;100184.31;7389378;19;20039;-61
2022/07/29 05:46:45;;;;;;;2.92;0.50;;;;;;;14.77;100.00;100184.81;7391003;19;20453;-60
2022/07/29 05:49:11;;;;;;;5.45;0.25;;;;;;;14.79;100.00;100185.81;7387235;19;20014;-60
2022/07/29 05:51:37;;;;;;;1.30;0.68;;;;;;;14.86;100.00;100191.00;7389715;19;20015;-60
2022/07/29 05:54:04;;;;;;;1.70;0.65;;;;;;;14.94;100.00;100186.47;7389438;19;20033;-60
2022/07/29 05:56:30;;;;;;;0.50;0.25;;;;;;;15.00;100.00;100180.91;7391006;19;20392;-60
2022/07/29 05:58:56;;;;;;;0.70;0.10;;;;;;;15.02;100.00;100187.56;7388919;19;20356;-60
2022/07/29 06:01:22;;;;;;;0.90;0.50;;;;;;;15.09;100.00;100186.34;7387569;19;20350;-60
2022/07/29 06:03:48;;;;;;;0.77;0.28;;;;;;;15.14;100.00;100194.78;7388564;19;20021;-60
2022/07/29 06:06:15;;;;;;;5.60;0.38;;;;;;;15.17;100.00;100188.19;7390540;19;20015;-60
2022/07/29 06:08:41;;;;;;;1.73;0.22;;;;;;;15.26;100.00;100200.50;7387260;19;20018;-60
2022/07/29 06:11:08;;;;;;;0.93;0.28;;;;;;;15.25;100.00;100198.94;7388899;19;20010;-60
2022/07/29 06:13:34;;;;;;;1.95;0.35;;;;;;;15.27;100.00;100194.38;7389421;19;20066;-60
2022/07/29 06:16:00;;;;;;;0.35;0.13;;;;;;;15.29;100.00;100199.50;7389615;19;20043;-61
2022/07/29 06:18:26;;;;;;;1.30;0.32;;;;;;;15.35;100.00;100198.28;7387060;19;20011;-60
2022/07/29 06:20:53;;;;;;;0.77;0.28;;;;;;;15.36;100.00;100201.81;7387417;19;20010;-60
2022/07/29 06:23:20;;;;;;;0.10;0.03;;;;;;;15.32;100.00;100198.50;7388400;19;20066;-60
2022/07/29 06:25:46;;;;;;;0.20;0.20;;;;;;;15.32;100.00;100206.91;7389071;19;20014;-60
2022/07/29 06:28:13;;;;;;;0.20;0.20;;;;;;;15.28;100.00;100204.34;7388794;19;20032;-59
2022/07/29 06:30:39;;;;;;;0.47;0.10;;;;;;;15.29;100.00;100205.88;7385430;19;20573;-60
2022/07/29 06:33:05;;;;;;;1.50;0.32;;;;;;;15.33;100.00;100214.06;7388021;19;20109;-60
2022/07/29 06:35:35;;;;;;;0.55;0.30;;;;;;;15.30;100.00;100209.44;7387194;19;20015;-60
2022/07/29 06:38:03;;;;;;;1.05;0.40;;;;;;;15.32;100.00;100206.91;7386005;19;20010;-60
2022/07/29 06:43:14;;;;;;;0.75;0.32;;;;;;;15.28;100.00;100209.19;7387601;19;20443;-60
2022/07/29 06:45:40;;;;;;;0.15;0.05;;;;;;;15.23;100.00;100210.66;7388150;19;20335;-60
2022/07/29 06:48:07;;;;;;;0.95;0.20;;;;;;;15.25;100.00;100207.34;7390600;19;20018;-59
2022/07/29 06:50:33;;;;;;;0.55;0.20;;;;;;;15.23;100.00;100210.66;7391606;19;20339;-60
2022/07/29 06:53:00;;;;;;;0.30;0.20;;;;;;;15.23;100.00;100212.69;7394151;19;20006;-60
2022/07/29 06:55:26;;;;;;;0.60;0.45;;;;;;;15.24;100.00;100211.44;7394278;19;20017;-60
2022/07/29 06:57:52;;;;;;;3.22;0.20;;;;;;;15.28;100.00;100207.16;7394431;19;20031;-60
2022/07/29 07:00:18;;;;;;;0.20;0.10;;;;;;;15.32;100.00;100206.91;7397579;19;20360;-60
2022/07/29 07:02:44;;;;;;;1.35;0.73;;;;;;;15.36;100.00;100215.84;7394712;19;20025;-60
2022/07/29 07:05:11;;;;;;;0.45;0.17;;;;;;;15.42;100.00;100211.06;7393443;19;20455;-60
2022/07/29 07:07:37;;;;;;;0.93;0.20;;;;;;;15.46;100.00;100211.63;7397697;19;20011;-60
2022/07/29 07:10:03;;;;;;;0.10;0.10;;;;;;;15.55;100.00;100222.69;7392249;19;20019;-59
2022/07/29 07:12:29;;;;;;;5.50;0.40;;;;;;;15.62;100.00;100222.19;7393367;19;20014;-60
2022/07/29 07:14:56;;;;;;;0.90;0.30;;;;;;;15.68;100.00;100212.53;7394301;19;20038;-60
2022/07/29 07:17:22;;;;;;;0.47;0.25;;;;;;;15.76;100.00;100222.03;7398051;19;20067;-59
2022/07/29 07:19:48;;;;;;;0.22;0.10;;;;;;;15.82;100.00;100236.09;7394033;19;20018;-59
2022/07/29 07:22:14;;;;;;;0.52;0.10;;;;;;;15.91;100.00;100228.25;7394391;19;20479;-59
2022/07/29 07:24:40;;;;;;;1.10;0.20;;;;;;;16.02;100.00;100233.16;7393517;19;20086;-59
2022/07/29 07:27:06;;;;;;;5.78;0.50;;;;;;;16.18;100.00;100226.03;7396856;19;20015;-60
2022/07/29 07:29:32;;;;;;;0.95;0.40;;;;;;;16.30;100.00;100219.97;7389809;19;20373;-60
2022/07/29 07:31:58;;;;;;;1.20;0.30;;;;;;;16.44;100.00;100218.19;7394028;19;20089;-60
2022/07/29 07:34:24;;;;;;;0.40;0.22;;;;;;;16.56;100.00;100226.22;7394180;19;20034;-60
2022/07/29 07:36:51;;;;;;;0.30;0.20;;;;;;;16.66;100.00;100226.72;7396046;19;20010;-60
2022/07/29 07:39:17;;;;;;;3.22;0.30;;;;;;;16.76;100.00;100224.44;7392272;19;20014;-60
2022/07/29 07:41:43;;;;;;;0.55;0.40;;;;;;;16.84;100.00;100228.28;7391293;19;20010;-60
2022/07/29 07:44:09;;;;;;;0.57;0.22;;;;;;;16.86;100.00;100225.72;7391369;19;20010;-60
2022/07/29 07:46:35;;;;;;;3.03;0.70;;;;;;;16.91;100.00;100222.94;7394919;19;20015;-60
2022/07/29 07:49:02;;;;;;;3.15;0.63;;;;;;;16.91;100.00;100208.09;7391834;19;20014;-60
2022/07/29 07:51:28;;;;;;;0.85;0.47;;;;;;;16.96;100.00;100212.94;7392551;19;20018;-59
2022/07/29 07:53:54;;;;;;;0.77;0.40;;;;;;;17.07;100.00;100213.72;7392797;19;20085;-60
2022/07/29 07:56:20;;;;;;;5.60;0.35;;;;;;;17.15;100.00;100211.19;7393492;19;20019;-59
2022/07/29 07:58:46;;;;;;;1.90;0.22;;;;;;;17.21;100.00;100223.19;7391871;19;20468;-60
2022/07/29 08:01:12;;;;;;;0.52;0.10;;;;;;;17.24;100.00;100224.97;7393052;19;20006;-59
2022/07/29 08:03:39;;;;;;;0.45;0.20;;;;;;;17.32;100.00;100214.75;7392780;19;20039;-60
2022/07/29 08:06:06;;;;;;;1.25;0.40;;;;;;;17.36;100.00;100229.31;7393687;19;20018;-59
2022/07/29 08:08:32;;;;;;;0.10;0.10;;;;;;;17.43;100.00;100223.19;7392645;19;20015;-59
2022/07/29 08:10:58;;;;;;;0.85;0.22;;;;;;;17.40;100.00;100224.97;7389842;19;20019;-59
2022/07/29 08:13:31;;;;;;;3.83;0.47;;;;;;;17.41;100.00;100208.84;7391867;19;20018;-59
2022/07/29 08:16:00;;;;;;;1.33;0.52;;;;;;;17.41;100.00;100208.84;7392031;19;20034;-59
2022/07/29 08:18:29;;;;;;;0.57;0.40;;;;;;;17.46;100.00;100205.25;7392940;19;20011;-59
2022/07/29 08:20:56;;;;;;;6.15;0.38;;;;;;;17.53;100.00;100207.56;7391730;19;20018;-59
2022/07/29 08:23:22;;;;;;;0.68;0.63;;;;;;;17.52;100.00;100208.84;7389852;19;20045;-60
2022/07/29 08:25:49;;;;;;;1.30;0.25;;;;;;;17.58;100.00;100206.03;7391692;19;20066;-59
2022/07/29 08:28:17;;;;;;;0.68;0.13;;;;;;;17.56;100.00;100215.00;7390681;19;20011;-59
2022/07/29 08:30:43;;;;;;;0.35;0.30;;;;;;;17.59;100.00;100216.78;7388423;19;20019;-60
2022/07/29 08:33:09;;;;;;;3.03;0.35;;;;;;;17.61;100.00;100210.63;7391356;19;20036;-60
2022/07/29 08:35:35;;;;;;;3.80;0.75;;;;;;;17.66;100.00;100210.63;7391344;19;20014;-60
2022/07/29 08:38:03;;;;;;;0.32;0.20;;;;;;;17.75;100.00;100206.75;7391414;19;20007;-60
2022/07/29 08:40:29;;;;;;;0.65;0.32;;;;;;;17.86;100.00;100213.13;7391394;19;20554;-60
2022/07/29 08:42:55;;;;;;;0.35;0.15;;;;;;;17.91;100.00;100206.69;7388198;19;20038;-60
2022/07/29 08:45:23;;;;;;;0.70;0.30;;;;;;;18.05;100.00;100211.25;7389262;19;20017;-60
2022/07/29 08:47:49;;;;;;;0.50;0.10;;;;;;;18.15;100.00;100211.72;7392811;19;20014;-60
2022/07/29 08:50:15;;;;;;;2.10;0.32;;;;;;;18.25;100.00;100220.66;7389068;19;20015;-60
2022/07/29 08:52:41;;;;;;;2.55;0.45;;;;;;;18.41;100.00;100217.75;7389754;19;20010;-60
2022/07/29 08:55:09;;;;;;;0.55;0.10;;;;;;;18.59;100.00;100208.69;7391188;19;20070;-60
2022/07/29 08:57:35;;;;;;;0.35;0.10;;;;;;;18.66;100.00;100201.72;7394752;19;20014;-60
2022/07/29 09:00:05;;;;;;;0.57;0.38;;;;;;;18.78;100.00;100208.81;7391868;19;20010;-60
2022/07/29 09:02:38;;;;;;;1.60;0.20;;;;;;;18.85;100.00;100202.63;7390863;19;20015;-60
2022/07/29 09:05:05;;;;;;;3.35;0.20;;;;;;;18.98;100.00;100211.25;7391971;19;20018;-60
2022/07/29 09:07:32;;;;;;;4.93;0.30;;;;;;;19.09;100.00;100213.22;7395271;19;20471;-60
2022/07/29 09:09:59;;;;;;;0.10;0.10;;;;;;;19.16;100.00;100215.47;7389346;19;20010;-60
2022/07/29 09:12:26;;;;;;;0.93;0.10;;;;;;;19.24;100.00;100210.78;7395221;19;20007;-60
2022/07/29 09:14:53;;;;;;;1.23;0.22;;;;;;;19.29;100.00;100205.09;7394291;19;20019;-59
2022/07/29 09:17:39;;;;;;;5.07;0.10;;;;;;;19.41;100.00;100198.06;7395976;19;20022;-60
2022/07/29 09:20:10;;;;;;;1.58;0.57;;;;;;;19.50;100.00;100200.53;7394101;19;20017;-60
2022/07/29 09:22:37;;;;;;;1.33;0.15;;;;;;;19.55;100.00;100207.44;7391478;19;20006;-59
2022/07/29 09:25:03;;;;;;;7.63;0.95;;;;;;;19.71;100.00;100200.09;7391874;19;20017;-59
2022/07/29 09:27:30;;;;;;;9.43;0.63;;;;;;;19.94;100.00;100204.16;7395878;19;20015;-59
2022/07/29 09:30:03;;;;;;;0.75;0.20;;;;;;;20.10;100.00;100201.13;7390649;19;20010;-59
2022/07/29 09:32:33;;;;;;;0.10;0.10;;;;;;;20.26;100.00;100205.84;7389714;19;20017;-59
2022/07/29 09:35:24;;;;;;;0.17;0.17;;;;;;;20.39;100.00;100200.28;7389100;19;20010;-59
2022/07/29 09:37:50;;;;;;;;;;;;;;;20.52;100.00;100199.59;7388115;19;20103;-59
2022/07/29 09:40:18;;;;;;;0.20;0.10;;;;;;;20.43;100.00;100205.63;7387686;19;19926;-59
2022/07/29 09:42:46;;;;;;;3.20;0.15;;;;;;;20.45;100.00;100202.25;7389014;19;20523;-59
2022/07/29 09:45:26;;;;;;;1.25;0.20;;;;;;;20.47;100.00;100206.06;7386085;19;20014;-58
2022/07/29 09:47:53;;;;;;;;;;;;;;;20.56;100.00;100205.69;7388532;19;20034;-58
2022/07/29 09:50:23;;;;;;;3.75;0.32;;;;;;;20.67;100.00;100202.69;7386995;19;20268;-58
2022/07/29 09:52:53;;;;;;;0.30;0.22;;;;;;;20.75;100.00;100205.66;7388355;19;20014;-58
2022/07/29 09:55:19;;;;;;;3.88;0.30;;;;;;;20.83;100.00;100206.59;7390145;19;20046;-57
2022/07/29 09:57:46;;;;;;;0.40;0.20;;;;;;;20.90;100.00;100200.28;7393666;19;20011;-57
2022/07/29 10:00:17;;;;;;;0.38;0.32;;;;;;;20.98;100.00;100199.13;7392773;19;20069;-57
2022/07/29 10:02:45;;;;;;;2.67;0.20;;;;;;;21.12;100.00;100202.78;7389655;19;20361;-57
2022/07/29 10:05:20;;;;;;;0.75;0.35;;;;;;;21.25;100.00;100207.72;7388367;19;20517;-56
2022/07/29 10:07:51;;;;;;;1.33;0.28;;;;;;;21.23;100.00;100196.94;7391559;19;20011;-56
2022/07/29 10:10:25;;;;;;;0.20;0.13;;;;;;;21.16;100.00;100203.22;7385028;19;20432;-56
2022/07/29 10:12:57;;;;;;;3.33;1.00;;;;;;;21.30;100.00;100204.03;7387807;19;20490;-56
2022/07/29 10:15:26;;;;;;;2.35;0.20;;;;;;;21.36;100.00;100211.13;7387400;19;20003;-56
2022/07/29 10:17:53;;;;;;;2.85;0.43;;;;;;;21.40;100.00;100205.91;7386566;19;20062;-56
2022/07/29 10:20:21;;;;;;;0.30;0.22;;;;;;;21.46;100.00;100208.66;7388959;19;20034;-56
2022/07/29 10:22:48;;;;;;;1.35;0.43;;;;;;;21.46;100.00;100214.31;7393643;19;20026;-56
2022/07/29 10:25:16;;;;;;;4.82;0.47;;;;;;;21.40;100.00;100222.13;7394791;19;20010;-56
2022/07/29 10:27:45;;;;;;;1.75;0.40;;;;;;;21.37;100.00;100214.72;7399209;19;20015;-55
2022/07/29 10:30:14;;;;;;;4.20;0.47;;;;;;;21.26;100.00;100221.34;7391174;19;20015;-56
2022/07/29 10:33:05;;;;;;;1.55;0.20;;;;;;;21.21;100.00;100212.94;7395303;19;20010;-56
2022/07/29 10:35:47;;;;;;;8.23;0.45;;;;;;;21.27;100.00;100214.38;7395345;19;20006;-55
2022/07/29 10:38:34;;;;;;;4.07;0.47;;;;;;;21.27;100.00;100219.31;7394697;19;20017;-56
2022/07/29 10:41:28;;;;;;;1.25;0.30;;;;;;;21.24;100.00;100217.53;7395637;19;20677;-56
2022/07/29 10:43:59;;;;;;;2.10;0.13;;;;;;;21.10;100.00;100220.31;7392743;19;20372;-56
2022/07/29 10:46:27;;;;;;;0.65;0.20;;;;;;;21.13;100.00;100222.09;7397321;19;20034;-56
2022/07/29 10:49:12;;;;;;;0.10;0.10;;;;;;;21.18;100.00;100219.69;7394513;19;20010;-56
2022/07/29 10:51:50;;;;;;;0.40;0.10;;;;;;;21.19;100.00;100226.88;7395008;19;20011;-56
2022/07/29 10:54:17;;;;;;;3.40;0.50;;;;;;;21.17;100.00;100226.66;7395092;19;20014;-56
2022/07/29 10:56:44;;;;;;;1.27;0.20;;;;;;;21.20;100.00;100223.53;7396700;19;20036;-56
2022/07/29 10:59:25;;;;;;;0.57;0.10;;;;;;;21.33;100.00;100222.78;7395598;19;20003;-56
2022/07/29 11:01:53;;;;;;;5.63;0.13;;;;;;;21.35;100.00;100220.19;7395388;19;20010;-56
2022/07/29 11:04:44;;;;;;;0.80;0.30;;;;;;;21.41;100.00;100218.00;7393621;19;20010;-56
2022/07/29 11:07:11;;;;;;;;;;;;;;;21.52;100.00;100215.75;7398399;19;20013;-56
2022/07/29 11:09:38;;;;;;;1.20;0.10;;;;;;;21.64;100.00;100213.44;7391469;19;20324;-56
2022/07/29 11:12:36;;;;;;;0.70;0.10;;;;;;;21.74;100.00;100214.56;7393293;19;20019;-56
2022/07/29 11:15:22;;;;;;;1.70;0.60;;;;;;;21.82;100.00;100207.72;7392901;19;20487;-56
2022/07/29 11:17:54;;;;;;;1.15;0.13;;;;;;;21.83;100.00;100214.91;7399508;19;20041;-53
2022/07/29 11:20:41;;;;;;;0.65;0.10;;;;;;;21.87;100.00;100215.34;7392350;19;20017;-54
2022/07/29 11:23:39;;;;;;;0.85;0.20;;;;;;;22.01;100.00;100201.94;7394237;19;20071;-53
2022/07/29 11:26:29;;;;;;;1.05;0.40;;;;;;;22.15;100.00;100203.47;7393914;19;20082;-54
2022/07/29 11:28:55;;;;;;;1.65;0.10;;;;;;;22.25;100.00;100196.00;7392533;19;20029;-54